createdAt,value
2022-08-16T00:01:40.808Z,19.11
2022-08-16T00:04:08.138Z,19.06
2022-08-16T00:06:39.327Z,19.02
2022-08-16T00:09:07.777Z,18.96
2022-08-16T00:11:40.033Z,18.93
2022-08-16T00:14:11.126Z,18.93
2022-08-16T00:17:00.657Z,18.93
2022-08-16T00:19:41.947Z,18.97
2022-08-16T00:22:12.732Z,18.96
2022-08-16T00:24:40.763Z,19.00
2022-08-16T00:27:11.755Z,19.01
2022-08-16T00:29:39.087Z,19.02
2022-08-16T00:32:07.153Z,19.02
2022-08-16T00:34:43.710Z,19.00
2022-08-16T00:37:24.480Z,18.97
2022-08-16T00:39:56.982Z,19.02
2022-08-16T00:42:31.623Z,19.04
2022-08-16T00:45:35.687Z,19.07
2022-08-16T00:48:31.031Z,19.10
2022-08-16T00:50:55.217Z,19.13
2022-08-16T00:53:23.164Z,19.16
2022-08-16T00:55:53.081Z,19.14
2022-08-16T00:58:34.603Z,19.10
2022-08-16T01:01:08.428Z,19.05
2022-08-16T01:03:41.629Z,18.95
2022-08-16T01:06:40.186Z,18.88
2022-08-16T01:09:00.213Z,18.75
2022-08-16T01:11:29.407Z,18.66
2022-08-16T01:14:05.625Z,18.61
2022-08-16T01:16:33.682Z,18.56
2022-08-16T01:19:16.092Z,18.54
2022-08-16T01:22:48.474Z,18.56
2022-08-16T01:24:55.514Z,18.50
2022-08-16T01:27:36.282Z,18.50
2022-08-16T01:30:30.634Z,18.49
2022-08-16T01:33:13.889Z,18.44
2022-08-16T01:35:57.382Z,18.43
2022-08-16T01:38:53.032Z,18.44
2022-08-16T01:41:31.959Z,18.45
2022-08-16T01:44:02.766Z,18.44
2022-08-16T01:46:44.022Z,18.43
2022-08-16T01:49:19.496Z,18.43
2022-08-16T01:51:58.562Z,18.43
2022-08-16T01:54:46.771Z,18.43
2022-08-16T01:57:13.646Z,18.45
2022-08-16T01:59:41.486Z,18.49
2022-08-16T02:02:27.328Z,18.51
2022-08-16T02:04:57.712Z,18.54
2022-08-16T02:07:25.639Z,18.57
2022-08-16T02:09:57.080Z,18.57
2022-08-16T02:12:50.095Z,18.56
2022-08-16T02:15:24.740Z,18.57
2022-08-16T02:17:58.705Z,18.57
2022-08-16T02:20:28.253Z,18.57
2022-08-16T02:22:57.959Z,18.61
2022-08-16T02:25:52.561Z,18.65
2022-08-16T02:28:17.185Z,18.64
2022-08-16T02:30:50.053Z,18.61
2022-08-16T02:33:42.894Z,18.61
2022-08-16T02:36:14.550Z,18.59
2022-08-16T02:38:58.689Z,18.58
2022-08-16T02:41:26.009Z,18.60
2022-08-16T02:43:54.005Z,18.65
2022-08-16T02:46:21.114Z,18.68
2022-08-16T02:49:02.237Z,18.72
2022-08-16T02:51:29.394Z,18.73
2022-08-16T02:53:59.562Z,18.72
2022-08-16T02:56:32.330Z,18.72
2022-08-16T02:58:59.888Z,18.70
2022-08-16T03:01:33.727Z,18.69
2022-08-16T03:04:29.669Z,18.69
2022-08-16T03:06:57.254Z,18.70
2022-08-16T03:09:37.206Z,18.73
2022-08-16T03:12:05.419Z,18.77
2022-08-16T03:14:34.770Z,18.81
2022-08-16T03:17:02.234Z,18.82
2022-08-16T03:19:47.053Z,18.79
2022-08-16T03:22:19.185Z,18.77
2022-08-16T03:24:58.612Z,18.75
2022-08-16T03:27:30.884Z,18.73
2022-08-16T03:30:02.603Z,18.72
2022-08-16T03:32:47.691Z,18.71
2022-08-16T03:35:22.075Z,18.72
2022-08-16T03:38:03.248Z,18.73
2022-08-16T03:40:37.927Z,18.72
2022-08-16T03:43:19.936Z,18.73
2022-08-16T03:45:49.363Z,18.77
2022-08-16T03:48:36.996Z,18.78
2022-08-16T03:51:13.798Z,18.79
2022-08-16T03:54:00.908Z,18.79
2022-08-16T03:56:31.316Z,18.80
2022-08-16T03:58:59.817Z,18.81
2022-08-16T04:01:30.735Z,18.81
2022-08-16T04:04:00.579Z,18.81
2022-08-16T04:06:28.569Z,18.83
2022-08-16T04:08:55.534Z,18.84
2022-08-16T04:11:24.603Z,18.85
2022-08-16T04:14:00.776Z,18.94
2022-08-16T04:16:39.177Z,19.01
2022-08-16T04:19:25.423Z,19.02
2022-08-16T04:22:00.771Z,19.00
2022-08-16T04:24:31.735Z,19.01
2022-08-16T04:26:59.195Z,19.07
2022-08-16T04:29:27.587Z,19.07
2022-08-16T04:32:11.288Z,19.04
2022-08-16T04:34:41.647Z,19.03
2022-08-16T04:37:09.717Z,19.04
2022-08-16T04:39:46.760Z,19.07
2022-08-16T04:42:26.542Z,19.04
2022-08-16T04:44:57.796Z,19.05
2022-08-16T04:47:33.281Z,19.07
2022-08-16T04:50:09.510Z,19.04
2022-08-16T04:52:38.004Z,19.05
2022-08-16T04:55:11.743Z,19.03
2022-08-16T04:57:41.427Z,19.00
2022-08-16T05:00:32.809Z,19.00
2022-08-16T05:03:11.996Z,19.04
2022-08-16T05:05:45.136Z,19.09
2022-08-16T05:08:28.735Z,19.14
2022-08-16T05:11:09.909Z,19.19
2022-08-16T05:13:42.649Z,19.20
2022-08-16T05:16:23.108Z,19.23
2022-08-16T05:19:01.651Z,19.27
2022-08-16T05:21:35.941Z,19.29
2022-08-16T05:24:07.508Z,19.30
2022-08-16T05:26:43.066Z,19.32
2022-08-16T05:29:14.800Z,19.37
2022-08-16T05:31:54.673Z,19.41
2022-08-16T05:34:22.491Z,19.38
2022-08-16T05:36:52.565Z,19.42
2022-08-16T05:39:20.596Z,19.48
2022-08-16T05:41:49.058Z,19.55
2022-08-16T05:44:23.297Z,19.60
2022-08-16T05:46:55.992Z,19.62
2022-08-16T05:49:25.713Z,19.61
2022-08-16T05:52:11.528Z,19.60
2022-08-16T05:54:46.855Z,19.63
2022-08-16T05:57:18.096Z,19.68
2022-08-16T05:59:46.881Z,19.75
2022-08-16T06:02:14.791Z,19.81
2022-08-16T06:04:44.894Z,19.87
2022-08-16T06:07:24.991Z,19.90
2022-08-16T06:10:31.895Z,19.89
2022-08-16T06:13:01.744Z,19.91
2022-08-16T06:15:28.895Z,19.90
2022-08-16T06:17:59.140Z,19.89
2022-08-16T06:20:35.649Z,19.85
2022-08-16T06:23:17.728Z,19.78
2022-08-16T06:26:07.463Z,19.70
2022-08-16T06:28:38.051Z,19.66
2022-08-16T06:31:12.128Z,19.67
2022-08-16T06:33:44.586Z,19.70
2022-08-16T06:36:14.253Z,19.76
2022-08-16T06:38:55.658Z,19.85
2022-08-16T06:41:42.596Z,19.93
2022-08-16T06:44:20.774Z,19.97
2022-08-16T06:46:51.156Z,20.01
2022-08-16T06:49:18.608Z,20.06
2022-08-16T06:51:48.061Z,20.11
2022-08-16T06:54:19.056Z,20.09
2022-08-16T06:56:45.825Z,20.00
2022-08-16T06:59:14.405Z,19.93
2022-08-16T07:01:53.595Z,19.87
2022-08-16T07:04:31.739Z,19.78
2022-08-16T07:07:05.567Z,19.60
2022-08-16T07:09:33.096Z,19.38
2022-08-16T07:12:03.234Z,19.13
2022-08-16T07:14:33.888Z,19.01
2022-08-16T07:17:08.410Z,18.90
2022-08-16T07:20:02.707Z,18.77
2022-08-16T07:22:37.587Z,18.70
2022-08-16T07:25:13.471Z,18.63
2022-08-16T07:27:41.498Z,18.56
2022-08-16T07:30:38.186Z,18.48
2022-08-16T07:33:02.860Z,18.47
2022-08-16T07:35:29.839Z,18.49
2022-08-16T07:37:56.895Z,18.53
2022-08-16T07:40:59.652Z,18.60
2022-08-16T07:43:21.589Z,18.67
2022-08-16T07:45:52.891Z,18.73
2022-08-16T07:48:21.500Z,18.74
2022-08-16T07:50:55.907Z,18.77
2022-08-16T07:53:29.365Z,18.82
2022-08-16T07:55:59.652Z,18.88
2022-08-16T07:58:34.981Z,18.96
2022-08-16T08:01:11.039Z,19.04
2022-08-16T08:03:49.110Z,19.12
2022-08-16T08:06:25.055Z,19.20
2022-08-16T08:08:57.352Z,19.25
2022-08-16T08:11:28.070Z,19.35
2022-08-16T08:14:03.389Z,19.48
2022-08-16T08:16:35.739Z,19.51
2022-08-16T08:19:04.479Z,19.50
2022-08-16T08:22:01.229Z,19.47
2022-08-16T08:24:34.577Z,19.42
2022-08-16T08:27:07.813Z,19.44
2022-08-16T08:29:37.897Z,19.48
2022-08-16T08:32:57.757Z,19.47
2022-08-16T08:35:03.882Z,19.40
2022-08-16T08:37:55.021Z,19.32
2022-08-16T08:40:26.834Z,19.28
2022-08-16T08:43:00.555Z,19.16
2022-08-16T08:45:46.829Z,19.05
2022-08-16T08:48:33.016Z,18.97
2022-08-16T08:51:09.735Z,18.89
2022-08-16T08:53:57.723Z,18.91
2022-08-16T08:56:32.356Z,18.89
2022-08-16T08:59:13.672Z,18.90
2022-08-16T09:01:56.769Z,18.92
2022-08-16T09:04:39.504Z,18.99
2022-08-16T09:07:07.303Z,19.02
2022-08-16T09:09:41.294Z,19.01
2022-08-16T09:12:31.131Z,19.05
2022-08-16T09:15:07.670Z,19.11
2022-08-16T09:17:51.913Z,19.19
2022-08-16T09:20:25.541Z,19.27
2022-08-16T09:22:54.481Z,19.35
2022-08-16T09:25:39.967Z,19.45
2022-08-16T09:28:14.581Z,19.51
2022-08-16T09:31:22.122Z,19.59
2022-08-16T09:33:52.318Z,19.66
2022-08-16T09:36:32.363Z,19.74
2022-08-16T09:39:01.777Z,19.74
2022-08-16T09:41:31.180Z,19.70
2022-08-16T09:44:02.565Z,19.74
2022-08-16T09:46:49.419Z,19.72
2022-08-16T09:49:19.788Z,19.72
2022-08-16T09:51:52.814Z,19.73
2022-08-16T09:54:21.771Z,19.73
2022-08-16T09:56:53.217Z,19.73
2022-08-16T09:59:23.326Z,19.73
2022-08-16T10:01:52.030Z,19.75
2022-08-16T10:04:33.130Z,19.79
2022-08-16T10:07:15.361Z,19.83
2022-08-16T10:09:55.756Z,19.93
2022-08-16T10:12:55.448Z,20.02
2022-08-16T10:15:25.603Z,20.13
2022-08-16T10:18:00.108Z,20.17
2022-08-16T10:20:35.029Z,20.26
2022-08-16T10:23:08.404Z,20.40
2022-08-16T10:27:19.575Z,20.52
2022-08-16T10:28:32.339Z,20.67
2022-08-16T10:31:07.736Z,20.81
2022-08-16T10:33:35.098Z,20.89
2022-08-16T10:36:08.441Z,20.99
2022-08-16T10:38:37.483Z,21.10
2022-08-16T10:41:08.914Z,21.25
2022-08-16T10:43:39.079Z,21.43
2022-08-16T10:46:40.027Z,21.60
2022-08-16T10:48:58.361Z,21.83
2022-08-16T10:51:34.529Z,22.08
2022-08-16T10:54:28.748Z,22.26
2022-08-16T10:57:04.246Z,22.35
2022-08-16T10:59:44.153Z,22.46
2022-08-16T11:02:58.247Z,22.54
2022-08-16T11:05:09.403Z,22.66
2022-08-16T11:07:51.508Z,22.82
2022-08-16T11:13:57.279Z,23.11
2022-08-16T11:19:04.824Z,23.27
2022-08-16T11:21:36.668Z,23.35
2022-08-16T11:24:04.643Z,23.44
2022-08-16T11:27:18.652Z,23.50
2022-08-16T11:29:39.480Z,23.59
2022-08-16T11:32:07.625Z,23.73
2022-08-16T11:35:05.943Z,23.84
2022-08-16T11:37:27.646Z,23.96
2022-08-16T11:40:11.279Z,24.00
2022-08-16T11:42:38.976Z,24.08
2022-08-16T11:45:08.282Z,24.15
2022-08-16T11:47:35.272Z,24.18
2022-08-16T11:50:03.797Z,24.16
2022-08-16T11:52:30.550Z,24.27
2022-08-16T11:55:00.168Z,24.33
2022-08-16T11:57:27.337Z,24.24
2022-08-16T11:59:55.011Z,24.30
2022-08-16T12:02:31.448Z,24.39
2022-08-16T12:05:01.028Z,24.51
2022-08-16T12:07:28.738Z,24.63
2022-08-16T12:09:59.173Z,24.77
2022-08-16T12:12:28.659Z,24.83
2022-08-16T12:15:00.196Z,24.92
2022-08-16T12:17:31.614Z,25.06
2022-08-16T12:20:00.997Z,25.11
2022-08-16T12:22:28.506Z,25.06
2022-08-16T12:24:56.078Z,25.12
2022-08-16T12:27:24.659Z,25.14
2022-08-16T12:29:53.043Z,25.17
2022-08-16T12:32:48.033Z,25.22
2022-08-16T12:35:11.538Z,25.31
2022-08-16T12:37:39.117Z,25.39
2022-08-16T12:40:24.947Z,25.48
2022-08-16T12:42:55.809Z,25.58
2022-08-16T12:45:27.879Z,25.65
2022-08-16T12:48:33.974Z,25.68
2022-08-16T12:51:01.833Z,25.73
2022-08-16T12:53:31.995Z,25.76
2022-08-16T12:56:00.001Z,25.87
2022-08-16T12:58:48.397Z,25.94
2022-08-16T13:01:14.790Z,25.98
2022-08-16T13:03:43.274Z,26.06
2022-08-16T13:06:12.528Z,26.04
2022-08-16T13:08:41.598Z,26.01
2022-08-16T13:11:17.770Z,26.09
2022-08-16T13:13:44.803Z,26.12
2022-08-16T13:16:20.381Z,26.12
2022-08-16T13:18:52.843Z,26.20
2022-08-16T13:21:23.370Z,26.25
2022-08-16T13:23:55.491Z,26.33
2022-08-16T13:26:24.494Z,26.43
2022-08-16T13:28:54.108Z,26.44
2022-08-16T13:31:21.248Z,26.40
2022-08-16T13:33:51.602Z,26.38
2022-08-16T13:36:38.821Z,26.41
2022-08-16T13:39:09.543Z,26.46
2022-08-16T13:41:37.515Z,26.56
2022-08-16T13:44:09.125Z,26.61
2022-08-16T13:46:36.736Z,26.61
2022-08-16T13:49:04.706Z,26.58
2022-08-16T13:51:32.778Z,26.50
2022-08-16T13:54:05.222Z,26.51
2022-08-16T13:56:38.004Z,26.53
2022-08-16T13:59:19.571Z,26.46
2022-08-16T14:01:56.649Z,26.46
2022-08-16T14:04:32.213Z,26.40
2022-08-16T14:07:00.979Z,26.37
2022-08-16T14:09:30.086Z,26.38
2022-08-16T14:11:58.430Z,26.41
2022-08-16T14:14:29.842Z,26.48
2022-08-16T14:17:02.318Z,26.53
2022-08-16T14:19:30.739Z,26.48
2022-08-16T14:22:14.332Z,26.48
2022-08-16T14:24:47.879Z,26.44
2022-08-16T14:27:17.614Z,26.46
2022-08-16T14:29:49.268Z,26.45
2022-08-16T14:32:33.381Z,26.35
2022-08-16T14:35:11.533Z,26.33
2022-08-16T14:37:39.610Z,26.34
2022-08-16T14:40:12.708Z,26.29
2022-08-16T14:42:40.790Z,26.30
2022-08-16T14:45:14.239Z,26.33
2022-08-16T14:47:41.526Z,26.35
2022-08-16T14:50:13.608Z,26.32
2022-08-16T14:52:58.263Z,26.29
2022-08-16T14:55:27.536Z,26.25
2022-08-16T14:57:55.319Z,26.17
2022-08-16T15:00:27.066Z,26.14
2022-08-16T15:03:05.475Z,26.12
2022-08-16T15:05:33.448Z,26.10
2022-08-16T15:08:02.442Z,26.00
2022-08-16T15:10:31.876Z,25.97
2022-08-16T15:13:00.532Z,25.96
2022-08-16T15:15:29.356Z,25.92
2022-08-16T15:17:57.511Z,25.87
2022-08-16T15:20:31.851Z,25.90
2022-08-16T15:23:01.122Z,25.91
2022-08-16T15:25:32.679Z,25.89
2022-08-16T15:28:02.247Z,25.86
2022-08-16T15:30:57.214Z,25.85
2022-08-16T15:33:20.162Z,25.85
2022-08-16T15:35:50.223Z,25.85
2022-08-16T15:38:57.829Z,25.85
2022-08-16T15:41:05.427Z,25.81
2022-08-16T15:43:39.470Z,25.79
2022-08-16T15:46:35.684Z,25.75
2022-08-16T15:49:13.392Z,25.69
2022-08-16T15:51:44.754Z,25.69
2022-08-16T15:54:29.237Z,25.68
2022-08-16T15:57:09.673Z,25.62
2022-08-16T15:59:49.027Z,25.57
2022-08-16T16:02:29.615Z,25.55
2022-08-16T16:05:07.180Z,25.51
2022-08-16T16:07:39.438Z,25.48
2022-08-16T16:10:12.997Z,25.45
2022-08-16T16:12:52.977Z,25.44
2022-08-16T16:15:25.399Z,25.42
2022-08-16T16:17:53.954Z,25.39
2022-08-16T16:20:27.226Z,25.36
2022-08-16T16:23:00.582Z,25.34
2022-08-16T16:25:28.063Z,25.31
2022-08-16T16:27:59.844Z,25.28
2022-08-16T16:30:37.508Z,25.24
2022-08-16T16:33:21.170Z,25.19
2022-08-16T16:35:57.042Z,25.13
2022-08-16T16:38:28.249Z,25.09
2022-08-16T16:40:55.467Z,25.06
2022-08-16T16:43:25.763Z,25.02
2022-08-16T16:46:00.017Z,24.97
2022-08-16T16:48:29.535Z,24.92
2022-08-16T16:51:09.158Z,24.87
2022-08-16T16:53:45.304Z,24.81
2022-08-16T16:56:31.161Z,24.74
2022-08-16T16:59:06.332Z,24.65
2022-08-16T17:01:57.001Z,24.56
2022-08-16T17:04:31.578Z,24.45
2022-08-16T17:07:01.467Z,24.37
2022-08-16T17:09:29.789Z,24.27
2022-08-16T17:11:58.564Z,24.20
2022-08-16T17:14:32.807Z,24.10
2022-08-16T17:17:06.291Z,23.99
2022-08-16T17:19:33.788Z,23.88
2022-08-16T17:22:13.874Z,23.78
2022-08-16T17:24:55.418Z,23.70
2022-08-16T17:27:32.373Z,23.66
2022-08-16T17:30:15.160Z,23.60
2022-08-16T17:32:50.237Z,23.52
2022-08-16T17:35:55.883Z,23.42
2022-08-16T17:38:38.760Z,23.28
2022-08-16T17:41:07.856Z,23.19
2022-08-16T17:43:44.538Z,23.06
2022-08-16T17:46:50.649Z,22.94
2022-08-16T17:48:59.780Z,22.81
2022-08-16T17:51:27.135Z,22.72
2022-08-16T17:53:54.576Z,22.63
2022-08-16T17:56:21.439Z,22.55
2022-08-16T17:58:48.308Z,22.47
2022-08-16T18:01:15.717Z,22.43
2022-08-16T18:04:07.373Z,22.40
2022-08-16T18:06:30.300Z,22.34
2022-08-16T18:09:02.559Z,22.33
2022-08-16T18:11:34.969Z,22.31
2022-08-16T18:14:02.016Z,22.30
2022-08-16T18:16:29.077Z,22.29
2022-08-16T18:18:56.529Z,22.25
2022-08-16T18:21:42.114Z,22.21
2022-08-16T18:24:10.470Z,22.15
2022-08-16T18:26:38.029Z,22.11
2022-08-16T18:29:05.844Z,22.03
2022-08-16T18:31:33.598Z,21.97
2022-08-16T18:34:01.043Z,21.93
2022-08-16T18:36:28.399Z,21.86
2022-08-16T18:38:55.246Z,21.78
2022-08-16T18:41:24.750Z,21.67
2022-08-16T18:44:22.316Z,21.65
2022-08-16T18:46:42.946Z,21.63
2022-08-16T18:49:11.086Z,21.61
2022-08-16T18:51:43.406Z,21.65
2022-08-16T18:54:12.642Z,21.65
2022-08-16T18:56:55.775Z,21.66
2022-08-16T18:59:27.884Z,21.70
2022-08-16T19:02:00.605Z,21.73
2022-08-16T19:04:55.213Z,21.74
2022-08-16T19:07:30.716Z,21.72
2022-08-16T19:10:02.102Z,21.66
2022-08-16T19:12:38.086Z,21.51
2022-08-16T19:15:23.784Z,21.44
2022-08-16T19:17:50.945Z,21.29
2022-08-16T19:20:20.541Z,21.23
2022-08-16T19:23:05.270Z,21.17
2022-08-16T19:25:49.226Z,21.13
2022-08-16T19:28:50.580Z,21.12
2022-08-16T19:31:23.539Z,21.11
2022-08-16T19:33:55.892Z,21.03
2022-08-16T19:36:35.907Z,21.01
2022-08-16T19:39:13.348Z,20.97
2022-08-16T19:41:44.051Z,20.89
2022-08-16T19:44:11.729Z,20.89
2022-08-16T19:46:42.963Z,20.80
2022-08-16T19:49:10.239Z,20.70
2022-08-16T19:51:44.564Z,20.60
2022-08-16T19:54:11.585Z,20.47
2022-08-16T19:56:38.292Z,20.35
2022-08-16T19:59:21.758Z,20.21
2022-08-16T20:01:53.227Z,20.11
2022-08-16T20:04:21.744Z,19.99
2022-08-16T20:06:49.894Z,19.85
2022-08-16T20:09:16.638Z,19.83
2022-08-16T20:11:45.384Z,19.85
2022-08-16T20:14:24.129Z,19.80
2022-08-16T20:16:57.866Z,19.72
2022-08-16T20:19:36.102Z,19.65
2022-08-16T20:22:35.552Z,19.64
2022-08-16T20:25:07.078Z,19.60
2022-08-16T20:27:34.061Z,19.49
2022-08-16T20:30:01.417Z,19.35
2022-08-16T20:32:36.322Z,19.24
2022-08-16T20:35:06.970Z,19.13
2022-08-16T20:37:36.735Z,19.08
2022-08-16T20:40:29.635Z,19.05
2022-08-16T20:43:01.374Z,19.04
2022-08-16T20:45:29.021Z,19.01
2022-08-16T20:47:56.587Z,19.01
2022-08-16T20:50:23.593Z,18.99
2022-08-16T20:52:50.869Z,19.01
2022-08-16T20:55:19.344Z,19.01
2022-08-16T20:57:46.086Z,19.03
2022-08-16T21:00:14.627Z,19.05
2022-08-16T21:02:42.065Z,19.00
2022-08-16T21:05:10.386Z,18.95
2022-08-16T21:07:38.036Z,18.86
2022-08-16T21:10:07.087Z,18.81
2022-08-16T21:12:37.654Z,18.77
2022-08-16T21:15:06.759Z,18.72
2022-08-16T21:17:33.620Z,18.71
2022-08-16T21:20:00.443Z,18.76
2022-08-16T21:22:27.209Z,18.78
2022-08-16T21:24:56.744Z,18.80
2022-08-16T21:27:26.234Z,18.80
2022-08-16T21:29:55.862Z,18.81
2022-08-16T21:32:35.354Z,18.78
2022-08-16T21:35:08.859Z,18.80
2022-08-16T21:37:35.595Z,18.80
2022-08-16T21:40:04.703Z,18.79
2022-08-16T21:42:36.156Z,18.75
2022-08-16T21:45:03.853Z,18.72
2022-08-16T21:47:30.531Z,18.66
2022-08-16T21:49:57.262Z,18.59
2022-08-16T21:52:26.236Z,18.57
2022-08-16T21:54:56.399Z,18.57
2022-08-16T21:57:24.137Z,18.53
2022-08-16T21:59:53.214Z,18.55
2022-08-16T22:02:22.352Z,18.56
2022-08-16T22:04:49.649Z,18.55
2022-08-16T22:07:17.611Z,18.53
2022-08-16T22:09:46.549Z,18.51
2022-08-16T22:12:27.999Z,18.50
2022-08-16T22:14:54.721Z,18.48
2022-08-16T22:17:21.480Z,18.45
2022-08-16T22:19:48.222Z,18.44
2022-08-16T22:22:15.072Z,18.47
2022-08-16T22:24:41.879Z,18.50
2022-08-16T22:27:08.966Z,18.50
2022-08-16T22:29:35.986Z,18.49
2022-08-16T22:32:07.034Z,18.51
2022-08-16T22:34:34.211Z,18.41
2022-08-16T22:37:01.397Z,18.34
2022-08-16T22:39:28.352Z,18.35
2022-08-16T22:41:56.370Z,18.25
2022-08-16T22:44:24.133Z,18.15
2022-08-16T22:46:50.993Z,18.10
2022-08-16T22:49:17.793Z,18.04
2022-08-16T22:51:46.014Z,17.99
2022-08-16T22:54:41.347Z,17.99
2022-08-16T22:57:00.935Z,18.06
2022-08-16T22:59:29.924Z,18.08
2022-08-16T23:01:57.275Z,18.04
2022-08-16T23:04:24.608Z,18.04
2022-08-16T23:06:52.374Z,18.08
2022-08-16T23:09:19.858Z,18.07
2022-08-16T23:11:46.983Z,18.03
2022-08-16T23:14:15.163Z,18.07
2022-08-16T23:16:43.220Z,18.13
2022-08-16T23:19:12.571Z,18.10
2022-08-16T23:21:43.227Z,18.01
2022-08-16T23:24:11.446Z,17.96
2022-08-16T23:26:47.654Z,17.94
2022-08-16T23:29:24.605Z,17.87
2022-08-16T23:31:55.816Z,17.85
2022-08-16T23:34:23.708Z,17.85
2022-08-16T23:36:50.656Z,17.82
2022-08-16T23:39:17.710Z,17.80
2022-08-16T23:41:44.469Z,17.86
2022-08-16T23:44:44.123Z,17.89
2022-08-16T23:46:58.635Z,17.88
2022-08-16T23:49:55.925Z,17.86
2022-08-16T23:52:12.684Z,17.82
2022-08-16T23:54:39.446Z,17.69
2022-08-16T23:57:07.509Z,17.59
2022-08-16T23:59:45.257Z,17.54
